createdAt,value
2017-09-03T00:00:33.195Z,10.48
2017-09-03T00:03:00.704Z,10.36
2017-09-03T00:05:28.214Z,10.30
2017-09-03T00:07:55.734Z,10.25
2017-09-03T00:10:23.247Z,10.24
2017-09-03T00:12:50.738Z,10.13
2017-09-03T00:15:18.252Z,10.06
2017-09-03T00:17:45.819Z,9.99
2017-09-03T00:20:13.326Z,9.99
2017-09-03T00:22:40.827Z,9.95
2017-09-03T00:25:08.341Z,9.97
2017-09-03T00:27:35.884Z,10.01
2017-09-03T00:30:03.406Z,9.99
2017-09-03T00:32:30.924Z,9.96
2017-09-03T00:34:58.421Z,9.96
2017-09-03T00:37:25.935Z,9.91
2017-09-03T00:39:53.444Z,9.82
2017-09-03T00:42:20.979Z,9.77
2017-09-03T00:44:48.505Z,9.76
2017-09-03T00:47:16.028Z,9.69
2017-09-03T00:49:43.554Z,9.69
2017-09-03T00:52:11.064Z,9.72
2017-09-03T00:54:38.567Z,9.78
2017-09-03T00:57:06.124Z,9.83
2017-09-03T00:59:33.625Z,9.80
2017-09-03T01:02:01.135Z,9.74
2017-09-03T01:04:28.668Z,9.71
2017-09-03T01:06:56.172Z,9.70
2017-09-03T01:09:23.683Z,9.63
2017-09-03T01:11:51.208Z,9.56
2017-09-03T01:14:18.724Z,9.48
2017-09-03T01:16:46.287Z,9.35
2017-09-03T01:19:13.798Z,9.26
2017-09-03T01:21:41.305Z,9.25
2017-09-03T01:24:08.806Z,9.26
2017-09-03T01:26:36.308Z,9.29
2017-09-03T01:29:03.845Z,9.26
2017-09-03T01:31:31.407Z,9.29
2017-09-03T01:33:58.910Z,9.27
2017-09-03T01:36:26.407Z,9.34
2017-09-03T01:38:53.908Z,9.37
2017-09-03T01:41:21.425Z,9.35
2017-09-03T01:43:48.949Z,9.30
2017-09-03T01:46:16.453Z,9.28
2017-09-03T01:48:43.951Z,9.26
2017-09-03T01:51:11.449Z,9.25
2017-09-03T01:53:39.137Z,9.25
2017-09-03T01:56:06.635Z,9.24
2017-09-03T01:58:34.156Z,9.23
2017-09-03T02:01:01.674Z,9.21
2017-09-03T02:03:29.200Z,9.18
2017-09-03T02:05:56.704Z,9.18
2017-09-03T02:08:24.203Z,9.17
2017-09-03T02:10:51.728Z,9.12
2017-09-03T02:13:19.235Z,9.02
2017-09-03T02:15:46.791Z,8.95
2017-09-03T02:18:14.359Z,8.94
2017-09-03T02:20:41.855Z,8.85
2017-09-03T02:23:09.362Z,8.78
2017-09-03T02:25:36.869Z,8.71
2017-09-03T02:28:04.391Z,8.62
2017-09-03T02:30:31.892Z,8.59
2017-09-03T02:32:59.385Z,8.57
2017-09-03T02:35:26.897Z,8.59
2017-09-03T02:37:54.411Z,8.58
2017-09-03T02:40:21.914Z,8.59
2017-09-03T02:42:49.411Z,8.61
2017-09-03T02:45:16.938Z,8.61
2017-09-03T02:47:44.443Z,8.53
2017-09-03T02:50:11.958Z,8.49
2017-09-03T02:52:39.482Z,8.48
2017-09-03T02:55:06.975Z,8.47
2017-09-03T02:57:34.497Z,8.42
2017-09-03T03:00:02.009Z,8.37
2017-09-03T03:02:29.528Z,8.37
2017-09-03T03:04:57.039Z,8.37
2017-09-03T03:07:24.548Z,8.39
2017-09-03T03:09:52.080Z,8.42
2017-09-03T03:12:19.606Z,8.36
2017-09-03T03:14:47.111Z,8.28
2017-09-03T03:17:14.621Z,8.25
2017-09-03T03:19:42.140Z,8.21
2017-09-03T03:22:09.648Z,8.18
2017-09-03T03:24:37.150Z,8.15
2017-09-03T03:27:04.654Z,8.13
2017-09-03T03:29:32.168Z,8.08
2017-09-03T03:31:59.677Z,8.04
2017-09-03T03:34:27.177Z,8.03
2017-09-03T03:36:54.944Z,7.98
2017-09-03T03:39:22.449Z,7.95
2017-09-03T03:41:49.973Z,7.90
2017-09-03T03:44:17.496Z,7.86
2017-09-03T03:46:44.998Z,7.86
2017-09-03T03:49:12.505Z,7.85
2017-09-03T03:51:40.027Z,7.81
2017-09-03T03:54:07.542Z,7.76
2017-09-03T03:56:35.052Z,7.75
2017-09-03T03:59:02.563Z,7.77
2017-09-03T04:01:30.079Z,7.80
2017-09-03T04:03:57.591Z,7.83
2017-09-03T04:06:25.098Z,7.86
2017-09-03T04:08:52.636Z,7.88
2017-09-03T04:11:20.154Z,7.92
2017-09-03T04:13:47.660Z,7.97
2017-09-03T04:16:15.163Z,8.02
2017-09-03T04:18:42.664Z,8.03
2017-09-03T04:21:10.189Z,8.04
2017-09-03T04:23:37.686Z,8.06
2017-09-03T04:26:05.208Z,8.08
2017-09-03T04:28:32.710Z,8.12
2017-09-03T04:31:00.218Z,8.17
2017-09-03T04:33:27.716Z,8.22
2017-09-03T04:35:55.346Z,8.28
2017-09-03T04:38:22.851Z,8.32
2017-09-03T04:40:50.362Z,8.34
2017-09-03T04:43:17.873Z,8.34
2017-09-03T04:45:45.380Z,8.35
2017-09-03T04:48:12.902Z,8.35
2017-09-03T04:50:40.406Z,8.36
2017-09-03T04:53:07.903Z,8.33
2017-09-03T04:55:35.407Z,8.33
2017-09-03T04:58:02.946Z,8.32
2017-09-03T05:00:30.462Z,8.28
2017-09-03T05:02:57.981Z,8.26
2017-09-03T05:05:25.484Z,8.24
2017-09-03T05:07:52.982Z,8.26
2017-09-03T05:10:20.488Z,8.27
2017-09-03T05:12:47.984Z,8.32
2017-09-03T05:15:15.487Z,8.41
2017-09-03T05:17:43.007Z,8.53
2017-09-03T05:20:10.530Z,8.60
2017-09-03T05:22:38.039Z,8.71
2017-09-03T05:25:05.531Z,8.84
2017-09-03T05:27:33.039Z,9.00
2017-09-03T05:30:00.538Z,9.15
2017-09-03T05:32:28.059Z,9.29
2017-09-03T05:34:55.584Z,9.41
2017-09-03T05:37:23.085Z,9.55
2017-09-03T05:39:50.596Z,9.72
2017-09-03T05:42:18.104Z,9.76
2017-09-03T05:44:45.619Z,9.93
2017-09-03T05:47:13.128Z,10.07
2017-09-03T05:49:40.635Z,10.16
2017-09-03T05:52:08.151Z,10.25
2017-09-03T05:54:35.687Z,10.32
2017-09-03T05:57:03.187Z,10.42
2017-09-03T05:59:30.715Z,10.49
2017-09-03T06:01:58.231Z,10.63
2017-09-03T06:04:25.736Z,10.65
2017-09-03T06:06:53.237Z,10.70
2017-09-03T06:09:20.748Z,10.71
2017-09-03T06:11:48.267Z,10.70
2017-09-03T06:14:15.780Z,10.72
2017-09-03T06:16:43.298Z,10.72
2017-09-03T06:19:10.804Z,10.87
2017-09-03T06:21:38.318Z,11.00
2017-09-03T06:24:05.844Z,11.10
2017-09-03T06:26:33.372Z,11.05
2017-09-03T06:29:00.919Z,11.03
2017-09-03T06:31:28.757Z,11.08
2017-09-03T06:33:56.259Z,11.24
2017-09-03T06:36:23.791Z,11.45
2017-09-03T06:38:51.311Z,11.69
2017-09-03T06:41:18.814Z,12.00
2017-09-03T06:43:46.323Z,12.15
2017-09-03T06:46:13.860Z,12.20
2017-09-03T06:48:41.368Z,12.27
2017-09-03T06:51:08.878Z,12.27
2017-09-03T06:53:36.407Z,12.29
2017-09-03T06:56:03.930Z,12.24
2017-09-03T06:58:31.448Z,12.13
2017-09-03T07:00:58.966Z,12.40
2017-09-03T07:03:26.475Z,12.38
2017-09-03T07:05:53.984Z,12.36
2017-09-03T07:08:21.499Z,12.27
2017-09-03T07:10:49.006Z,12.29
2017-09-03T07:13:16.508Z,12.32
2017-09-03T07:15:44.026Z,12.42
2017-09-03T07:18:11.548Z,12.46
2017-09-03T07:20:39.079Z,12.37
2017-09-03T07:23:06.582Z,12.36
2017-09-03T07:25:34.111Z,12.36
2017-09-03T07:28:01.631Z,12.57
2017-09-03T07:30:29.156Z,12.91
2017-09-03T07:32:56.683Z,13.16
2017-09-03T07:35:24.199Z,13.49
2017-09-03T07:37:51.725Z,13.88
2017-09-03T07:40:19.226Z,14.18
2017-09-03T07:42:46.761Z,14.26
2017-09-03T07:45:14.272Z,15.10
2017-09-03T07:47:41.795Z,16.07
2017-09-03T07:50:09.318Z,16.84
2017-09-03T07:52:36.850Z,16.63
2017-09-03T07:55:04.397Z,16.38
2017-09-03T07:57:31.931Z,16.47
2017-09-03T07:59:59.790Z,16.58
2017-09-03T08:02:27.370Z,16.56
2017-09-03T08:04:54.871Z,16.70
2017-09-03T08:07:22.383Z,17.58
2017-09-03T08:09:49.897Z,17.49
2017-09-03T08:12:17.416Z,17.13
2017-09-03T08:14:44.948Z,16.58
2017-09-03T08:17:12.493Z,16.13
2017-09-03T08:19:39.999Z,16.19
2017-09-03T08:22:07.544Z,16.10
2017-09-03T08:24:35.057Z,16.11
2017-09-03T08:27:02.584Z,16.08
2017-09-03T08:29:30.107Z,15.92
2017-09-03T08:31:57.630Z,15.91
2017-09-03T08:34:25.182Z,16.17
2017-09-03T08:36:52.702Z,16.39
2017-09-03T08:39:20.227Z,16.52
2017-09-03T08:41:47.743Z,16.96
2017-09-03T08:44:15.268Z,17.38
2017-09-03T08:46:42.858Z,18.23
2017-09-03T08:49:10.378Z,18.49
2017-09-03T08:51:38.109Z,18.45
2017-09-03T08:54:05.617Z,18.42
2017-09-03T08:56:33.123Z,18.09
2017-09-03T08:59:00.653Z,18.42
2017-09-03T09:01:28.204Z,18.70
2017-09-03T09:03:55.721Z,19.73
2017-09-03T09:06:23.262Z,22.15
2017-09-03T09:08:50.930Z,24.25
2017-09-03T09:11:18.456Z,25.59
2017-09-03T09:13:45.999Z,27.10
2017-09-03T09:16:13.529Z,27.72
2017-09-03T09:18:41.049Z,27.50
2017-09-03T09:21:08.692Z,25.86
2017-09-03T09:23:36.352Z,24.40
2017-09-03T09:26:03.907Z,22.85
2017-09-03T09:28:31.432Z,21.46
2017-09-03T09:30:58.989Z,20.21
2017-09-03T09:33:26.528Z,20.34
2017-09-03T09:35:54.152Z,20.88
2017-09-03T09:38:22.004Z,22.43
2017-09-03T09:40:49.518Z,23.45
2017-09-03T09:43:17.034Z,26.74
2017-09-03T09:45:44.540Z,28.26
2017-09-03T09:48:12.060Z,26.53
2017-09-03T09:50:39.705Z,24.69
2017-09-03T09:53:07.284Z,23.80
2017-09-03T09:55:34.791Z,23.01
2017-09-03T09:58:02.320Z,22.48
2017-09-03T10:00:29.876Z,21.81
2017-09-03T10:02:57.398Z,21.54
2017-09-03T10:05:24.927Z,22.39
2017-09-03T10:07:52.445Z,22.00
2017-09-03T10:10:19.977Z,23.52
2017-09-03T10:12:47.510Z,26.64
2017-09-03T10:15:15.023Z,29.02
2017-09-03T10:17:42.532Z,29.06
2017-09-03T10:20:10.043Z,29.74
2017-09-03T10:22:37.573Z,29.57
2017-09-03T10:25:05.097Z,29.72
2017-09-03T10:27:32.620Z,29.79
2017-09-03T10:30:00.147Z,31.08
2017-09-03T10:32:27.673Z,32.63
2017-09-03T10:34:55.203Z,33.92
2017-09-03T10:37:22.872Z,35.01
2017-09-03T10:39:50.432Z,36.26
2017-09-03T10:42:17.967Z,35.69
2017-09-03T10:44:45.526Z,36.52
2017-09-03T10:47:13.079Z,36.76
2017-09-03T10:49:40.594Z,34.58
2017-09-03T10:52:08.166Z,33.22
2017-09-03T10:54:35.720Z,31.02
2017-09-03T10:57:03.242Z,29.46
2017-09-03T10:59:30.787Z,28.04
2017-09-03T11:01:58.319Z,31.12
2017-09-03T11:04:25.848Z,34.01
2017-09-03T11:06:53.354Z,33.13
2017-09-03T11:09:20.864Z,33.88
2017-09-03T11:11:48.400Z,33.92
2017-09-03T11:14:15.930Z,34.64
2017-09-03T11:16:43.450Z,33.72
2017-09-03T11:19:10.971Z,35.77
2017-09-03T11:21:38.529Z,35.03
2017-09-03T11:24:06.056Z,37.22
2017-09-03T11:26:33.588Z,36.46
2017-09-03T11:29:01.116Z,34.90
2017-09-03T11:31:28.652Z,33.53
2017-09-03T11:33:56.181Z,32.99
2017-09-03T11:36:23.709Z,31.13
2017-09-03T11:38:51.234Z,30.56
2017-09-03T11:41:18.926Z,32.79
2017-09-03T11:43:46.443Z,32.94
2017-09-03T11:46:13.947Z,34.27
2017-09-03T11:48:41.497Z,35.92
2017-09-03T11:51:09.048Z,37.14
2017-09-03T11:53:36.563Z,37.75
2017-09-03T11:56:04.086Z,38.53
2017-09-03T11:58:31.606Z,36.69
2017-09-03T12:00:59.171Z,37.56
2017-09-03T12:03:26.681Z,37.62
2017-09-03T12:05:54.213Z,38.63
2017-09-03T12:08:21.768Z,38.08
2017-09-03T12:10:49.284Z,37.41
2017-09-03T12:13:16.800Z,35.60
2017-09-03T12:15:44.321Z,31.00
2017-09-03T12:18:11.848Z,30.00
2017-09-03T12:20:39.358Z,30.06
2017-09-03T12:23:06.886Z,28.98
2017-09-03T12:25:34.423Z,28.27
2017-09-03T12:28:02.006Z,31.15
2017-09-03T12:30:29.527Z,34.21
2017-09-03T12:32:57.048Z,32.16
2017-09-03T12:35:24.605Z,30.69
2017-09-03T12:37:52.121Z,34.07
2017-09-03T12:40:19.725Z,34.91
2017-09-03T12:42:47.288Z,32.65
2017-09-03T12:45:14.805Z,34.88
2017-09-03T12:47:42.343Z,34.39
2017-09-03T12:50:09.931Z,34.03
2017-09-03T12:52:37.471Z,33.63
2017-09-03T12:55:04.977Z,31.72
2017-09-03T12:57:32.501Z,31.07
2017-09-03T13:00:00.209Z,30.34
2017-09-03T13:02:27.717Z,28.90
2017-09-03T13:04:55.243Z,26.44
2017-09-03T13:07:22.772Z,25.81
2017-09-03T13:09:50.300Z,24.82
2017-09-03T13:12:17.824Z,24.57
2017-09-03T13:14:45.366Z,25.17
2017-09-03T13:17:12.885Z,24.16
2017-09-03T13:19:40.390Z,24.05
2017-09-03T13:22:07.927Z,23.30
2017-09-03T13:24:35.450Z,23.72
2017-09-03T13:27:03.695Z,23.52
2017-09-03T13:29:31.209Z,23.28
2017-09-03T13:31:58.720Z,22.57
2017-09-03T13:34:26.239Z,22.68
2017-09-03T13:36:53.783Z,22.80
2017-09-03T13:39:21.306Z,22.44
2017-09-03T13:41:48.902Z,21.96
2017-09-03T13:44:16.410Z,21.98
2017-09-03T13:46:43.924Z,22.02
2017-09-03T13:49:11.456Z,21.54
2017-09-03T13:51:39.003Z,21.88
2017-09-03T13:54:06.547Z,21.76
2017-09-03T13:56:34.090Z,21.63
2017-09-03T13:59:01.617Z,21.35
2017-09-03T14:01:29.144Z,21.40
2017-09-03T14:03:56.700Z,21.28
2017-09-03T14:06:24.207Z,21.28
2017-09-03T14:08:51.757Z,21.55
2017-09-03T14:11:19.410Z,21.87
2017-09-03T14:13:46.932Z,22.04
2017-09-03T14:16:14.459Z,21.96
2017-09-03T14:18:41.994Z,22.19
2017-09-03T14:21:09.523Z,22.76
2017-09-03T14:23:37.027Z,23.18
2017-09-03T14:26:04.611Z,23.27
2017-09-03T14:28:32.137Z,23.90
2017-09-03T14:30:59.681Z,23.51
2017-09-03T14:33:27.189Z,23.45
2017-09-03T14:35:54.711Z,23.38
2017-09-03T14:38:22.248Z,23.13
2017-09-03T14:40:49.791Z,22.96
2017-09-03T14:43:17.293Z,22.93
2017-09-03T14:45:44.803Z,22.79
2017-09-03T14:48:12.337Z,22.55
2017-09-03T14:50:39.865Z,22.73
2017-09-03T14:53:07.372Z,22.77
2017-09-03T14:55:34.921Z,22.68
2017-09-03T14:58:02.460Z,22.51
2017-09-03T15:00:30.004Z,22.39
2017-09-03T15:02:57.624Z,22.10
2017-09-03T15:05:26.129Z,21.35
2017-09-03T15:07:53.660Z,21.01
2017-09-03T15:10:21.221Z,20.78
2017-09-03T15:12:48.753Z,20.27
2017-09-03T15:15:16.252Z,19.94
2017-09-03T15:17:43.807Z,20.14
2017-09-03T15:20:11.354Z,20.14
2017-09-03T15:22:38.879Z,20.00
2017-09-03T15:25:06.392Z,19.69
2017-09-03T15:27:33.912Z,19.57
2017-09-03T15:30:01.426Z,19.88
2017-09-03T15:32:28.966Z,19.96
2017-09-03T15:34:56.505Z,20.01
2017-09-03T15:37:24.015Z,19.76
2017-09-03T15:39:51.563Z,19.83
2017-09-03T15:42:19.076Z,19.92
2017-09-03T15:44:46.647Z,20.04
2017-09-03T15:47:14.148Z,20.04
2017-09-03T15:49:41.716Z,19.77
2017-09-03T15:52:09.252Z,19.62
2017-09-03T15:54:36.796Z,19.51
2017-09-03T15:57:04.331Z,19.45
2017-09-03T15:59:31.847Z,19.35
2017-09-03T16:01:59.369Z,19.36
2017-09-03T16:04:26.899Z,19.15
2017-09-03T16:06:54.422Z,19.12
2017-09-03T16:09:21.935Z,19.09
2017-09-03T16:11:49.486Z,18.96
2017-09-03T16:14:17.099Z,18.91
2017-09-03T16:16:44.647Z,18.83
2017-09-03T16:19:12.203Z,18.58
2017-09-03T16:21:39.749Z,18.26
2017-09-03T16:24:07.279Z,18.30
2017-09-03T16:26:34.945Z,18.32
2017-09-03T16:29:02.469Z,18.27
2017-09-03T16:31:29.995Z,18.27
2017-09-03T16:33:57.528Z,18.24
2017-09-03T16:36:25.035Z,18.19
2017-09-03T16:38:52.554Z,18.28
2017-09-03T16:41:20.074Z,18.20
2017-09-03T16:43:47.597Z,18.15
2017-09-03T16:46:15.119Z,18.21
2017-09-03T16:48:42.655Z,18.16
2017-09-03T16:51:10.178Z,18.14
2017-09-03T16:53:37.748Z,18.03
2017-09-03T16:56:05.266Z,17.91
2017-09-03T16:58:32.891Z,17.84
2017-09-03T17:01:00.428Z,17.38
2017-09-03T17:03:27.963Z,17.11
2017-09-03T17:05:55.485Z,16.88
2017-09-03T17:08:23.041Z,16.61
2017-09-03T17:10:50.895Z,16.58
2017-09-03T17:13:18.415Z,16.52
2017-09-03T17:15:45.948Z,16.42
2017-09-03T17:18:13.461Z,16.31
2017-09-03T17:20:41.027Z,16.22
2017-09-03T17:23:08.616Z,16.08
2017-09-03T17:25:36.154Z,16.01
2017-09-03T17:28:03.800Z,15.92
2017-09-03T17:30:31.338Z,15.87
2017-09-03T17:32:58.903Z,15.79
2017-09-03T17:35:36.372Z,15.64
2017-09-03T17:38:03.899Z,15.48
2017-09-03T17:43:34.456Z,15.04
2017-09-03T17:46:01.982Z,14.93
2017-09-03T17:48:29.504Z,14.85
2017-09-03T17:50:57.019Z,14.78
2017-09-03T17:53:24.589Z,14.70
2017-09-03T17:55:52.115Z,14.59
2017-09-03T17:58:19.674Z,14.47
2017-09-03T18:00:47.245Z,14.38
2017-09-03T18:03:14.791Z,14.31
2017-09-03T18:05:42.312Z,14.28
2017-09-03T18:08:09.851Z,14.19
2017-09-03T18:10:37.388Z,14.06
2017-09-03T18:13:04.971Z,13.96
2017-09-03T18:15:32.508Z,13.85
2017-09-03T18:18:00.080Z,13.76
2017-09-03T18:20:30.138Z,13.65
2017-09-03T18:22:57.658Z,13.58
2017-09-03T18:25:25.231Z,13.50
2017-09-03T18:27:52.830Z,13.39
2017-09-03T18:30:21.425Z,13.36
2017-09-03T18:32:48.968Z,13.32
2017-09-03T18:35:16.522Z,13.21
2017-09-03T18:37:45.041Z,13.13
2017-09-03T18:43:18.000Z,12.96
2017-09-03T18:45:46.474Z,12.88
2017-09-03T18:48:14.019Z,12.79
2017-09-03T18:50:41.560Z,12.73
2017-09-03T18:56:13.911Z,12.70
2017-09-03T18:58:41.438Z,12.64
2017-09-03T19:01:08.992Z,12.55
2017-09-03T19:03:38.912Z,12.54
2017-09-03T19:06:07.275Z,12.48
2017-09-03T19:08:34.850Z,12.50
2017-09-03T19:11:02.367Z,12.49
2017-09-03T19:13:29.939Z,12.48
2017-09-03T19:15:57.480Z,12.45
2017-09-03T19:18:25.064Z,12.43
2017-09-03T19:20:52.613Z,12.35
2017-09-03T19:23:20.158Z,12.26
2017-09-03T19:25:47.692Z,12.20
2017-09-03T19:28:15.220Z,12.13
2017-09-03T19:30:42.757Z,12.15
2017-09-03T19:33:10.292Z,12.07
2017-09-03T19:35:37.818Z,12.06
2017-09-03T19:38:06.774Z,11.99
2017-09-03T19:41:00.896Z,12.18
2017-09-03T19:43:28.670Z,12.22
2017-09-03T19:45:56.204Z,11.83
2017-09-03T19:48:23.725Z,11.25
2017-09-03T19:50:51.273Z,10.94
2017-09-03T19:53:18.812Z,11.11
2017-09-03T19:55:46.335Z,10.99
2017-09-03T19:58:13.927Z,11.15
2017-09-03T20:00:41.559Z,10.93
2017-09-03T20:03:09.092Z,10.71
2017-09-03T20:05:36.622Z,10.66
2017-09-03T20:08:04.181Z,10.84
2017-09-03T20:10:31.742Z,11.10
2017-09-03T20:12:59.400Z,10.90
2017-09-03T20:15:26.936Z,11.03
2017-09-03T20:17:54.470Z,10.73
2017-09-03T20:20:21.991Z,10.39
2017-09-03T20:22:49.522Z,10.23
2017-09-03T20:25:17.048Z,10.20
2017-09-03T20:27:44.588Z,10.22
2017-09-03T20:30:12.122Z,10.35
2017-09-03T20:32:39.644Z,10.60
2017-09-03T20:35:07.220Z,10.54
2017-09-03T20:37:34.728Z,10.69
2017-09-03T20:40:02.259Z,10.73
2017-09-03T20:42:29.904Z,10.64
2017-09-03T20:44:57.442Z,10.86
2017-09-03T20:47:24.968Z,10.90
2017-09-03T20:49:52.501Z,10.84
2017-09-03T20:52:20.026Z,10.24
2017-09-03T20:54:47.538Z,10.02
2017-09-03T20:57:15.063Z,10.00
2017-09-03T20:59:42.637Z,9.93
2017-09-03T21:02:10.174Z,9.91
2017-09-03T21:04:37.864Z,9.79
2017-09-03T21:07:05.443Z,9.86
2017-09-03T21:09:32.997Z,9.87
2017-09-03T21:12:00.515Z,9.97
2017-09-03T21:14:28.039Z,9.86
2017-09-03T21:16:55.572Z,9.65
2017-09-03T21:19:23.233Z,9.60
2017-09-03T21:21:50.786Z,9.51
2017-09-03T21:24:18.350Z,9.56
2017-09-03T21:26:45.883Z,9.51
2017-09-03T21:29:13.448Z,9.46
2017-09-03T21:31:40.965Z,9.53
2017-09-03T21:34:08.526Z,9.54
2017-09-03T21:36:36.034Z,9.69
2017-09-03T21:39:03.556Z,9.65
2017-09-03T21:41:31.075Z,9.67
2017-09-03T21:43:58.586Z,9.68
2017-09-03T21:46:26.107Z,9.34
2017-09-03T21:48:53.679Z,9.37
2017-09-03T21:51:21.209Z,9.53
2017-09-03T21:53:48.730Z,9.55
2017-09-03T21:56:16.234Z,9.74
2017-09-03T21:58:43.737Z,9.89
2017-09-03T22:01:11.290Z,9.74
2017-09-03T22:03:38.812Z,9.96
2017-09-03T22:06:06.316Z,9.62
2017-09-03T22:08:33.828Z,9.33
2017-09-03T22:11:01.361Z,9.37
2017-09-03T22:13:28.887Z,9.40
2017-09-03T22:15:56.476Z,9.57
2017-09-03T22:18:23.997Z,9.48
2017-09-03T22:20:51.498Z,9.27
2017-09-03T22:23:19.011Z,9.28
2017-09-03T22:25:46.531Z,9.33
2017-09-03T22:28:14.059Z,9.53
2017-09-03T22:30:41.562Z,9.51
2017-09-03T22:33:09.100Z,9.16
2017-09-03T22:35:36.628Z,8.90
2017-09-03T22:38:04.128Z,9.01
2017-09-03T22:40:31.668Z,9.23
2017-09-03T22:42:59.183Z,9.51
2017-09-03T22:45:26.688Z,9.18
2017-09-03T22:47:54.260Z,8.83
2017-09-03T22:50:21.759Z,8.59
2017-09-03T22:52:49.275Z,8.48
2017-09-03T22:55:16.787Z,8.60
2017-09-03T22:57:44.332Z,8.56
2017-09-03T23:00:11.851Z,8.41
2017-09-03T23:02:39.380Z,8.50
2017-09-03T23:05:06.906Z,8.63
2017-09-03T23:07:34.407Z,8.75
2017-09-03T23:10:01.918Z,9.06
2017-09-03T23:12:29.472Z,9.02
2017-09-03T23:14:56.979Z,8.82
2017-09-03T23:17:24.478Z,8.44
2017-09-03T23:19:52.003Z,8.63
2017-09-03T23:22:19.515Z,8.79
2017-09-03T23:24:47.039Z,8.86
2017-09-03T23:27:14.592Z,8.84
2017-09-03T23:29:42.110Z,8.81
2017-09-03T23:32:09.632Z,9.02
2017-09-03T23:34:37.148Z,8.79
2017-09-03T23:37:04.647Z,8.52
2017-09-03T23:39:32.172Z,8.29
2017-09-03T23:41:59.672Z,8.25
2017-09-03T23:44:27.210Z,8.73
2017-09-03T23:46:54.717Z,8.90
2017-09-03T23:49:22.245Z,8.90
2017-09-03T23:51:49.769Z,8.86
2017-09-03T23:54:17.278Z,8.37
2017-09-03T23:56:44.786Z,8.29
2017-09-03T23:59:12.287Z,8.32
